createdAt,value
2018-08-23T07:27:24.212Z,41.18
2018-08-23T07:29:00.152Z,41.56
2018-08-23T07:30:36.116Z,41.92
2018-08-23T07:32:17.266Z,41.82
2018-08-23T07:33:53.972Z,41.00
2018-08-23T07:35:35.176Z,41.50
2018-08-23T07:37:17.199Z,40.72
2018-08-23T07:38:54.021Z,40.92
2018-08-23T07:40:30.104Z,41.15
2018-08-23T07:42:06.017Z,41.40
2018-08-23T07:43:42.536Z,40.61
2018-08-23T07:45:18.609Z,40.97
2018-08-23T07:46:55.462Z,40.72
2018-08-23T07:48:31.288Z,40.37
2018-08-23T07:50:07.531Z,40.76
2018-08-23T07:51:43.398Z,40.65
2018-08-23T07:53:20.163Z,40.77
2018-08-23T07:54:59.092Z,40.70
2018-08-23T07:56:34.848Z,39.86
2018-08-23T07:58:10.640Z,39.64
2018-08-23T07:59:46.370Z,40.09
2018-08-23T08:01:31.486Z,39.72
2018-08-23T08:03:08.502Z,40.19
2018-08-23T08:04:44.582Z,40.28
2018-08-23T08:06:25.721Z,40.15
2018-08-23T08:08:02.080Z,39.19
2018-08-23T08:09:43.188Z,39.81
2018-08-23T08:11:19.529Z,39.99
2018-08-23T08:12:55.591Z,39.22
2018-08-23T08:14:38.295Z,38.88
2018-08-23T08:16:17.364Z,38.87
2018-08-23T08:17:53.982Z,38.62
2018-08-23T08:19:37.893Z,38.01
2018-08-23T08:21:17.911Z,37.51
2018-08-23T08:22:54.125Z,38.04
2018-08-23T08:24:31.210Z,37.23
2018-08-23T08:26:08.169Z,37.06
2018-08-23T08:27:45.619Z,37.27
2018-08-23T08:29:28.705Z,36.54
2018-08-23T08:31:05.781Z,36.75
2018-08-23T08:32:42.856Z,36.08
2018-08-23T08:34:19.564Z,36.42
2018-08-23T08:36:04.317Z,36.05
2018-08-23T08:37:42.141Z,35.95
2018-08-23T08:39:19.132Z,36.54
2018-08-23T08:40:56.741Z,36.03
2018-08-23T08:42:33.921Z,36.12
2018-08-23T08:44:10.385Z,35.37
2018-08-23T08:45:46.777Z,34.65
2018-08-23T08:47:22.924Z,34.22
2018-08-23T08:48:59.157Z,33.87
2018-08-23T08:50:39.631Z,34.08
2018-08-23T08:52:16.861Z,34.13
2018-08-23T08:53:59.443Z,33.74
2018-08-23T08:55:35.565Z,33.05
2018-08-23T08:57:11.431Z,32.49
2018-08-23T08:58:48.165Z,32.54
2018-08-23T09:00:24.767Z,32.58
2018-08-23T09:02:02.814Z,31.27
2018-08-23T09:03:40.356Z,30.23
2018-08-23T09:05:17.054Z,30.16
2018-08-23T09:06:54.590Z,29.53
2018-08-23T09:08:31.747Z,30.94
2018-08-23T09:10:09.405Z,29.78
2018-08-23T09:11:45.952Z,29.49
2018-08-23T09:13:28.259Z,30.03
2018-08-23T09:15:04.402Z,29.57
2018-08-23T09:16:40.161Z,29.58
2018-08-23T09:18:16.204Z,29.65
2018-08-23T09:20:05.500Z,30.14
2018-08-23T09:21:45.796Z,29.80
2018-08-23T09:23:22.077Z,28.84
2018-08-23T09:24:58.057Z,29.24
2018-08-23T09:26:38.604Z,28.60
2018-08-23T09:28:16.929Z,27.73
2018-08-23T09:29:53.293Z,27.56
2018-08-23T09:31:29.432Z,27.50
2018-08-23T09:33:08.293Z,28.31
2018-08-23T09:34:44.039Z,27.98
2018-08-23T09:36:20.158Z,29.63
2018-08-23T09:37:58.394Z,29.96
2018-08-23T09:39:34.825Z,27.57
2018-08-23T09:41:11.303Z,26.78
2018-08-23T09:42:49.159Z,27.56
2018-08-23T09:44:26.757Z,29.58
2018-08-23T09:46:03.576Z,28.19
2018-08-23T09:47:42.305Z,27.14
2018-08-23T09:49:22.975Z,27.44
2018-08-23T09:50:59.848Z,30.47
2018-08-23T09:52:40.002Z,28.50
2018-08-23T09:54:20.660Z,29.79
2018-08-23T09:55:57.961Z,29.32
2018-08-23T09:57:36.155Z,29.13
2018-08-23T09:59:25.316Z,26.86
2018-08-23T10:01:08.407Z,28.15
2018-08-23T10:02:51.854Z,27.44
2018-08-23T10:04:33.338Z,28.12
2018-08-23T10:06:14.606Z,28.40
2018-08-23T10:07:55.897Z,28.23
2018-08-23T10:09:36.631Z,26.31
2018-08-23T10:11:20.787Z,27.75
2018-08-23T10:13:02.453Z,28.02
2018-08-23T10:14:43.898Z,27.06
2018-08-23T10:16:25.837Z,26.98
2018-08-23T10:18:06.959Z,26.73
2018-08-23T10:19:48.452Z,26.06
2018-08-23T10:21:29.776Z,26.24
2018-08-23T10:23:11.396Z,25.99
2018-08-23T10:24:47.213Z,26.30
2018-08-23T10:26:30.791Z,25.56
2018-08-23T10:28:07.298Z,27.24
2018-08-23T10:29:42.963Z,26.39
2018-08-23T10:31:18.977Z,25.68
2018-08-23T10:32:54.924Z,24.85
2018-08-23T10:34:32.150Z,25.42
2018-08-23T10:36:08.239Z,25.38
2018-08-23T10:37:44.531Z,25.79
2018-08-23T10:39:20.227Z,26.41
2018-08-23T10:41:02.302Z,25.55
2018-08-23T10:42:37.955Z,24.62
2018-08-23T10:44:14.660Z,24.18
2018-08-23T10:45:51.091Z,25.02
2018-08-23T10:47:32.175Z,24.93
2018-08-23T10:49:07.786Z,23.06
2018-08-23T10:50:43.885Z,24.12
2018-08-23T10:52:21.340Z,25.31
2018-08-23T10:53:59.013Z,25.71
2018-08-23T10:55:34.701Z,25.10
2018-08-23T10:57:15.840Z,24.70
2018-08-23T10:58:51.673Z,25.04
2018-08-23T11:00:27.766Z,26.04
2018-08-23T11:02:03.590Z,25.67
2018-08-23T11:03:40.294Z,24.80
2018-08-23T11:05:17.059Z,25.08
2018-08-23T11:07:00.628Z,25.14
2018-08-23T11:08:40.232Z,24.24
2018-08-23T11:10:21.705Z,23.66
2018-08-23T11:11:57.699Z,23.31
2018-08-23T11:13:39.176Z,23.86
2018-08-23T11:15:21.609Z,25.22
2018-08-23T11:17:02.997Z,25.02
2018-08-23T11:18:44.322Z,24.51
2018-08-23T11:20:27.751Z,25.00
2018-08-23T11:22:06.263Z,25.56
2018-08-23T11:23:46.272Z,25.32
2018-08-23T11:25:25.267Z,24.75
2018-08-23T11:27:01.326Z,25.10
2018-08-23T11:28:38.412Z,23.93
2018-08-23T11:30:14.294Z,24.89
2018-08-23T11:31:50.623Z,24.57
2018-08-23T11:33:26.230Z,24.81
2018-08-23T11:35:01.957Z,24.96
2018-08-23T11:36:37.663Z,25.24
2018-08-23T11:38:13.368Z,25.88
2018-08-23T11:39:49.081Z,24.72
2018-08-23T11:41:24.722Z,23.97
2018-08-23T11:43:00.574Z,25.19
2018-08-23T11:44:36.673Z,24.53
2018-08-23T11:46:17.511Z,24.73
2018-08-23T11:47:53.140Z,25.57
2018-08-23T11:49:29.181Z,25.58
2018-08-23T11:51:09.034Z,25.47
2018-08-23T11:52:46.760Z,24.76
2018-08-23T11:54:22.552Z,24.70
2018-08-23T11:55:58.774Z,24.77
2018-08-23T11:57:39.190Z,24.18
2018-08-23T11:59:19.863Z,24.80
2018-08-23T12:01:02.130Z,27.19
2018-08-23T12:02:41.324Z,27.83
2018-08-23T12:04:16.963Z,28.65
2018-08-23T12:06:02.185Z,28.82
2018-08-23T12:07:42.491Z,28.68
2018-08-23T12:09:18.125Z,28.03
2018-08-23T12:10:54.905Z,27.37
2018-08-23T12:12:31.749Z,27.16
2018-08-23T12:14:07.464Z,27.43
2018-08-23T12:17:32.975Z,26.39
2018-08-23T12:19:14.695Z,26.35
2018-08-23T12:20:50.204Z,26.27
2018-08-23T12:22:32.429Z,26.69
2018-08-23T12:24:09.771Z,25.78
2018-08-23T12:25:45.654Z,25.72
2018-08-23T12:27:24.952Z,25.91
2018-08-23T12:29:06.315Z,25.78
2018-08-23T12:30:42.485Z,26.90
2018-08-23T12:32:18.270Z,27.82
2018-08-23T12:33:55.121Z,26.66
2018-08-23T12:35:32.828Z,26.25
2018-08-23T12:37:16.326Z,25.61
2018-08-23T12:38:57.528Z,25.88
2018-08-23T12:40:40.984Z,26.74
2018-08-23T12:42:22.957Z,26.65
2018-08-23T12:44:00.159Z,26.54
2018-08-23T12:45:42.373Z,26.59
2018-08-23T12:47:19.230Z,26.58
2018-08-23T12:48:59.306Z,27.67
2018-08-23T12:50:39.750Z,27.85
2018-08-23T12:52:16.389Z,27.51
2018-08-23T12:53:57.158Z,27.55
2018-08-23T12:55:34.352Z,28.08
2018-08-23T12:57:14.422Z,27.83
2018-08-23T12:58:50.543Z,27.73
2018-08-23T13:00:26.976Z,28.45
2018-08-23T13:02:03.245Z,28.32
2018-08-23T13:03:41.643Z,28.67
2018-08-23T13:05:20.504Z,28.81
2018-08-23T13:06:56.710Z,28.02
2018-08-23T13:08:32.420Z,28.55
2018-08-23T13:10:08.112Z,27.77
2018-08-23T13:11:44.596Z,27.62
2018-08-23T13:13:21.268Z,28.63
2018-08-23T13:14:57.157Z,28.87
2018-08-23T13:16:33.323Z,28.56
2018-08-23T13:18:10.245Z,27.57
2018-08-23T13:19:46.879Z,26.57
2018-08-23T13:21:22.915Z,26.43
2018-08-23T13:22:59.206Z,25.93
2018-08-23T13:24:41.178Z,24.83
2018-08-23T13:26:16.932Z,24.68
2018-08-23T13:27:53.660Z,23.59
2018-08-23T13:29:29.305Z,23.12
2018-08-23T13:31:05.521Z,22.69
2018-08-23T13:32:41.619Z,23.74
2018-08-23T13:34:17.333Z,23.65
2018-08-23T13:35:52.978Z,23.85
2018-08-23T13:37:29.134Z,23.71
2018-08-23T13:39:08.346Z,23.88
2018-08-23T13:40:44.039Z,23.92
2018-08-23T13:42:21.174Z,24.16
2018-08-23T13:43:56.820Z,24.63
2018-08-23T13:45:32.617Z,24.56
2018-08-23T13:47:08.352Z,26.18
2018-08-23T13:48:44.428Z,30.84
2018-08-23T13:50:20.707Z,33.35
2018-08-23T13:51:58.419Z,35.93
2018-08-23T13:53:34.285Z,38.46
2018-08-23T13:55:10.052Z,40.79
2018-08-23T13:56:46.176Z,52.67
2018-08-23T13:58:25.493Z,52.04
2018-08-23T14:00:09.970Z,56.41
2018-08-23T14:01:48.175Z,64.94
2018-08-23T14:03:23.945Z,66.92
2018-08-23T14:04:59.935Z,67.19
2018-08-23T14:06:37.633Z,66.47
2018-08-23T14:08:13.522Z,64.54
2018-08-23T14:09:52.907Z,65.99
2018-08-23T14:11:30.263Z,66.16
2018-08-23T14:13:07.012Z,66.31
2018-08-23T14:14:46.287Z,66.08
2018-08-23T14:16:28.787Z,65.79
2018-08-23T14:18:15.773Z,70.84
2018-08-23T14:19:51.837Z,70.63
2018-08-23T14:21:27.496Z,72.91
2018-08-23T14:23:03.368Z,73.91
2018-08-23T14:24:39.892Z,73.94
2018-08-23T14:26:15.506Z,73.49
2018-08-23T14:27:51.330Z,72.26
2018-08-23T14:29:27.471Z,71.92
2018-08-23T14:31:03.040Z,70.21
2018-08-23T14:32:44.067Z,70.11
2018-08-23T14:34:20.927Z,69.30
2018-08-23T14:35:56.798Z,68.39
2018-08-23T14:37:32.777Z,67.54
2018-08-23T14:39:10.088Z,67.84
2018-08-23T14:40:47.245Z,66.82
2018-08-23T14:42:23.119Z,66.45
2018-08-23T14:44:00.271Z,68.26
2018-08-23T14:45:37.105Z,68.29
2018-08-23T14:47:18.461Z,68.20
2018-08-23T14:48:55.015Z,68.55
2018-08-23T14:50:31.144Z,67.94
2018-08-23T14:52:11.018Z,67.89
2018-08-23T14:53:49.539Z,66.61
2018-08-23T14:55:30.814Z,66.42
2018-08-23T14:57:14.369Z,66.44
2018-08-23T14:58:50.232Z,66.02
2018-08-23T15:00:26.968Z,68.15
2018-08-23T15:02:02.636Z,67.84
2018-08-23T15:03:38.161Z,69.16
2018-08-23T15:05:14.369Z,68.82
2018-08-23T15:06:52.023Z,68.85
2018-08-23T15:08:28.762Z,69.45
2018-08-23T15:10:07.842Z,70.28
2018-08-23T15:11:43.793Z,70.26
2018-08-23T15:13:19.339Z,71.22
2018-08-23T15:14:54.965Z,70.08
2018-08-23T15:16:30.669Z,70.39
2018-08-23T15:18:06.434Z,69.85
2018-08-23T15:19:41.940Z,69.08
2018-08-23T15:21:17.439Z,69.99
2018-08-23T15:22:53.052Z,69.96
2018-08-23T15:24:28.614Z,68.77
2018-08-23T15:26:04.260Z,67.78
2018-08-23T15:27:39.744Z,68.19
2018-08-23T15:29:15.249Z,68.83
2018-08-23T15:30:50.808Z,67.67
2018-08-23T15:32:26.336Z,68.13
2018-08-23T15:34:01.842Z,67.51
2018-08-23T15:35:37.422Z,67.77
2018-08-23T15:37:12.984Z,68.33
2018-08-23T15:38:48.599Z,69.75
2018-08-23T15:40:24.140Z,70.32
2018-08-23T15:43:41.373Z,70.25
2018-08-23T15:45:18.392Z,68.73
2018-08-23T15:46:54.143Z,67.65
2018-08-23T15:48:29.643Z,67.65
2018-08-23T15:50:05.190Z,67.90
2018-08-23T15:51:41.359Z,66.32
2018-08-23T15:53:17.253Z,66.32
2018-08-23T15:54:52.852Z,66.30
2018-08-23T15:56:28.439Z,65.43
2018-08-23T15:58:04.124Z,64.76
2018-08-23T15:59:39.599Z,66.59
2018-08-23T16:01:15.160Z,66.23
2018-08-23T16:02:53.620Z,65.46
2018-08-23T16:04:29.205Z,66.91
2018-08-23T16:06:04.779Z,65.87
2018-08-23T16:07:40.334Z,65.51
2018-08-23T16:09:16.415Z,65.87
2018-08-23T16:10:51.938Z,66.05
2018-08-23T16:12:27.523Z,66.89
2018-08-23T16:14:03.484Z,65.15
2018-08-23T16:15:39.128Z,63.63
2018-08-23T16:17:20.035Z,62.29
2018-08-23T16:19:01.125Z,62.33
2018-08-23T16:20:42.045Z,63.25
2018-08-23T16:22:17.669Z,65.19
2018-08-23T16:23:53.364Z,65.69
2018-08-23T16:25:28.909Z,64.81
2018-08-23T16:27:05.609Z,65.13
2018-08-23T16:28:41.147Z,66.50
2018-08-23T16:30:16.714Z,66.73
2018-08-23T16:31:52.331Z,68.59
2018-08-23T16:33:27.822Z,68.61
2018-08-23T16:35:03.407Z,67.66
2018-08-23T16:36:39.153Z,68.44
2018-08-23T16:38:14.651Z,69.07
2018-08-23T16:39:50.143Z,68.35
2018-08-23T16:41:31.639Z,68.39
2018-08-23T16:43:08.432Z,69.24
2018-08-23T16:44:44.001Z,68.40
2018-08-23T16:46:19.587Z,68.75
2018-08-23T16:47:55.112Z,68.82
2018-08-23T16:49:30.696Z,69.05
2018-08-23T16:51:06.419Z,68.51
2018-08-23T16:52:42.089Z,68.60
2018-08-23T16:54:18.021Z,69.34
2018-08-23T16:55:53.537Z,69.33
2018-08-23T16:57:29.197Z,69.08
2018-08-23T16:59:04.896Z,68.54
2018-08-23T17:00:40.451Z,68.47
2018-08-23T17:02:15.986Z,67.92
2018-08-23T17:03:54.629Z,69.25
2018-08-23T17:05:30.188Z,68.37
2018-08-23T17:07:06.505Z,68.81
2018-08-23T17:08:42.049Z,69.45
2018-08-23T17:10:18.023Z,69.87
2018-08-23T17:11:53.713Z,71.19
2018-08-23T17:13:35.179Z,71.57
2018-08-23T17:15:15.163Z,70.92
2018-08-23T17:16:56.446Z,70.26
2018-08-23T17:18:32.888Z,68.87
2018-08-23T17:20:10.496Z,69.10
2018-08-23T17:21:46.545Z,69.74
2018-08-23T17:23:23.125Z,69.49
2018-08-23T17:24:59.824Z,69.78
2018-08-23T17:26:35.744Z,68.35
2018-08-23T17:28:11.662Z,68.65
2018-08-23T17:29:48.069Z,69.06
2018-08-23T17:31:24.252Z,68.15
2018-08-23T17:32:59.743Z,69.63
2018-08-23T17:34:36.198Z,70.59
2018-08-23T17:36:11.702Z,71.20
2018-08-23T17:37:48.550Z,69.47
2018-08-23T17:39:24.786Z,69.62
2018-08-23T17:41:00.649Z,70.96
2018-08-23T17:42:41.455Z,71.14
2018-08-23T17:44:17.112Z,72.29
2018-08-23T17:45:52.670Z,73.04
2018-08-23T17:47:28.200Z,73.10
2018-08-23T17:49:04.051Z,73.22
2018-08-23T17:50:39.624Z,72.79
2018-08-23T17:52:15.220Z,71.47
2018-08-23T17:53:50.838Z,70.65
2018-08-23T17:55:37.419Z,69.94
2018-08-23T17:57:13.381Z,70.69
2018-08-23T17:58:48.962Z,71.04
2018-08-23T18:00:25.623Z,71.05
2018-08-23T18:02:02.973Z,71.11
2018-08-23T18:03:38.734Z,71.72
2018-08-23T18:05:14.320Z,71.68
2018-08-23T18:06:53.318Z,72.78
2018-08-23T18:08:29.052Z,72.48
2018-08-23T18:10:08.134Z,71.74
2018-08-23T18:11:44.447Z,71.62
2018-08-23T18:13:27.409Z,71.68
2018-08-23T18:15:10.839Z,71.57
2018-08-23T18:16:55.631Z,72.51
2018-08-23T18:18:38.665Z,73.23
2018-08-23T18:20:14.573Z,72.33
2018-08-23T18:21:51.918Z,71.77
2018-08-23T18:23:27.821Z,72.49
2018-08-23T18:25:04.751Z,71.70
2018-08-23T18:26:43.242Z,72.09
2018-08-23T18:28:22.618Z,71.52
2018-08-23T18:30:00.155Z,71.82
2018-08-23T18:31:38.567Z,72.46
2018-08-23T19:25:07.517Z,75.05
2018-08-23T19:26:43.715Z,77.28
2018-08-23T19:30:03.024Z,78.07
2018-08-23T19:31:40.178Z,77.11
2018-08-23T19:33:17.912Z,77.28
2018-08-23T19:34:54.088Z,78.36
2018-08-23T19:36:30.636Z,78.90
2018-08-23T19:38:07.891Z,78.56
2018-08-23T19:39:44.671Z,78.54
2018-08-23T19:41:20.732Z,77.76
2018-08-23T19:42:58.777Z,77.18
2018-08-23T19:44:40.009Z,77.00
2018-08-23T19:46:22.819Z,76.66
2018-08-23T19:47:58.887Z,76.97
2018-08-23T19:49:41.879Z,77.05
2018-08-23T19:51:18.963Z,77.31
2018-08-23T19:52:54.898Z,77.50
2018-08-23T19:54:31.558Z,78.00
2018-08-23T19:56:09.025Z,77.62
2018-08-23T19:57:44.950Z,77.35
2018-08-23T19:59:20.659Z,77.92
2018-08-23T20:00:56.598Z,77.18
2018-08-23T20:02:32.782Z,77.35
2018-08-23T20:04:08.905Z,77.81
2018-08-23T20:05:52.960Z,78.01
2018-08-23T20:07:29.517Z,77.58
2018-08-23T20:09:11.252Z,77.76
2018-08-23T20:10:49.452Z,77.60
2018-08-23T20:12:32.640Z,77.00
2018-08-23T20:14:09.231Z,77.70
2018-08-23T20:15:46.984Z,77.78
2018-08-23T20:17:22.556Z,77.55
2018-08-23T20:18:58.312Z,76.71
2018-08-23T20:20:38.194Z,76.38
2018-08-23T20:22:14.067Z,76.16
2018-08-23T20:23:49.844Z,75.47
2018-08-23T20:25:32.044Z,73.86
2018-08-23T20:29:08.951Z,74.01
2018-08-23T20:30:45.041Z,74.91
2018-08-23T20:32:21.452Z,75.32
2018-08-23T20:34:00.235Z,75.02
2018-08-23T20:35:36.303Z,75.26
2018-08-23T20:37:13.038Z,75.75
2018-08-23T20:38:48.719Z,75.06
2018-08-23T20:40:25.318Z,75.73
2018-08-23T20:42:00.892Z,75.33
2018-08-23T20:43:36.406Z,76.10
2018-08-23T20:45:21.293Z,76.04
2018-08-23T20:46:56.966Z,76.62
2018-08-23T20:48:33.732Z,76.63
2018-08-23T20:50:09.403Z,76.95
2018-08-23T20:51:44.984Z,76.49
2018-08-23T20:53:20.556Z,76.54
2018-08-23T20:54:56.152Z,76.99
2018-08-23T20:56:31.802Z,75.99
2018-08-23T20:58:09.879Z,75.77
2018-08-23T20:59:45.394Z,76.21
2018-08-23T21:01:20.982Z,75.93
2018-08-23T21:02:56.573Z,76.35
2018-08-23T21:04:32.633Z,76.53
2018-08-23T21:06:09.036Z,77.37
2018-08-23T21:07:44.736Z,77.51
2018-08-23T21:09:21.938Z,77.91
2018-08-23T21:10:57.482Z,77.91
2018-08-23T21:12:34.812Z,77.88
2018-08-23T21:14:11.073Z,77.74
2018-08-23T21:15:49.614Z,77.32
2018-08-23T21:17:25.423Z,78.32
2018-08-23T21:19:01.886Z,77.45
2018-08-23T21:20:37.552Z,77.61
2018-08-23T21:22:13.563Z,78.48
2018-08-23T21:23:49.164Z,77.57
2018-08-23T21:25:24.762Z,78.19
2018-08-23T21:27:00.308Z,78.62
2018-08-23T21:28:36.262Z,78.83
2018-08-23T21:30:11.985Z,79.12
2018-08-23T21:31:47.537Z,78.82
2018-08-23T21:33:23.116Z,78.80
2018-08-23T21:34:58.644Z,78.17
2018-08-23T21:36:34.248Z,78.31
2018-08-23T21:38:09.796Z,78.78
2018-08-23T21:39:45.300Z,78.44
2018-08-23T21:41:20.824Z,78.35
2018-08-23T21:42:56.618Z,78.00
2018-08-23T21:44:34.066Z,78.50
2018-08-23T21:46:10.568Z,78.51
2018-08-23T21:47:46.316Z,78.62
2018-08-23T21:49:22.075Z,78.64
2018-08-23T21:50:58.311Z,78.78
2018-08-23T21:52:34.532Z,78.27
2018-08-23T21:54:12.362Z,77.88
2018-08-23T21:55:48.751Z,77.53
2018-08-23T21:57:24.595Z,77.78
2018-08-23T21:59:03.885Z,77.74
2018-08-23T22:00:45.955Z,77.28
2018-08-23T22:02:22.470Z,77.59
2018-08-23T22:03:58.204Z,77.47
2018-08-23T22:05:34.444Z,77.57
2018-08-23T22:07:10.058Z,77.06
2018-08-23T22:08:45.695Z,77.62
2018-08-23T22:10:22.755Z,77.77
2018-08-23T22:11:58.615Z,77.99
2018-08-23T22:13:34.205Z,78.19
2018-08-23T22:15:11.064Z,77.75
2018-08-23T22:16:46.779Z,77.50
2018-08-23T22:18:22.890Z,77.56
2018-08-23T22:19:58.495Z,77.72
2018-08-23T22:21:34.155Z,76.91
2018-08-23T22:23:09.783Z,77.20
2018-08-23T22:24:45.382Z,77.60
2018-08-23T22:26:33.376Z,78.29
2018-08-23T22:28:09.207Z,77.69
2018-08-23T22:29:45.651Z,78.07
2018-08-23T22:31:22.456Z,78.38
2018-08-23T22:32:57.986Z,78.27
2018-08-23T22:34:33.526Z,78.44
2018-08-23T22:36:09.108Z,78.48
2018-08-23T22:37:44.679Z,79.10
2018-08-23T22:39:20.392Z,78.90
2018-08-23T22:40:55.946Z,78.31
2018-08-23T22:42:31.442Z,78.84
2018-08-23T22:44:07.077Z,78.57
2018-08-23T22:45:42.723Z,79.34
2018-08-23T22:47:18.439Z,78.54
2018-08-23T22:48:53.971Z,78.48
2018-08-23T22:50:29.511Z,78.65
2018-08-23T22:52:05.310Z,78.99
2018-08-23T22:53:42.755Z,78.16
2018-08-23T22:55:19.110Z,77.92
2018-08-23T22:56:54.622Z,78.30
2018-08-23T22:58:30.670Z,78.57
2018-08-23T23:00:06.803Z,78.46
2018-08-23T23:01:42.513Z,79.23
2018-08-23T23:03:23.825Z,78.79
2018-08-23T23:04:59.740Z,79.04
2018-08-23T23:06:35.310Z,79.30
2018-08-23T23:08:10.943Z,79.77
2018-08-23T23:09:46.830Z,80.36
2018-08-23T23:11:23.908Z,81.38
2018-08-23T23:12:59.698Z,81.73
2018-08-23T23:14:35.220Z,83.50
2018-08-23T23:16:10.900Z,84.24
2018-08-23T23:17:46.432Z,84.29
2018-08-23T23:19:23.226Z,83.91
2018-08-23T23:20:58.798Z,82.53
2018-08-23T23:22:34.433Z,82.85
2018-08-23T23:24:15.540Z,82.18
2018-08-23T23:25:51.450Z,82.30
2018-08-23T23:27:27.064Z,82.05
2018-08-23T23:29:02.761Z,80.53
2018-08-23T23:30:38.323Z,81.23
2018-08-23T23:32:14.106Z,81.33
2018-08-23T23:33:49.714Z,80.50
2018-08-23T23:35:27.187Z,80.68
2018-08-23T23:37:02.754Z,80.49
2018-08-23T23:38:38.314Z,80.57
2018-08-23T23:40:14.919Z,80.36
2018-08-23T23:41:50.797Z,79.74
2018-08-23T23:43:26.371Z,79.31
2018-08-23T23:45:01.912Z,79.43
2018-08-23T23:46:37.443Z,80.25
2018-08-23T23:48:14.615Z,79.87
2018-08-23T23:49:50.260Z,80.26
2018-08-23T23:51:26.155Z,79.59
2018-08-23T23:53:01.695Z,79.62
2018-08-23T23:54:37.227Z,79.41
2018-08-23T23:56:12.972Z,79.58
2018-08-23T23:57:48.581Z,80.55
2018-08-23T23:59:24.329Z,80.24
